KCUT

Custer County Airport

Custer, South Dakota, USA
METAR KCUT 181453Z AUTO 25009KT 10SM CLR 07/00 A3016 RMK AO2 SLP208 T00670000 56011
Observed Flight Rules
Oct-18 @ 14:53 UTC (an hour ago) Visual Flight Rules
Wind Visibility Clouds
250° at 9 knots 10 miles
  • Clear skies
Temperatures Readings
Current 7°C / 45°F
Dewpoint 0°C / 32°F
Humidity 61%
Altimeter 30.16" Hg
Pressure 1020.8 hPa
Elevation 1725
METAR KCUT 181453Z AUTO 25009KT 10SM CLR 07/00 A3016 RMK AO2 SLP208 T00670000 56011
Observed Flight Rules
Oct-18 @ 14:53 UTC
(an hour ago)
VFR
Wind Visibility
250° at 9 knots 10 miles
Clouds
  • Clear skies
Temperature Dewpoint
7°C / 45°F 0°C / 32°F
Humidity Altimeter Pressure
61% 30.16" Hg 1020.8 hPa